Time;durP1;ratioP1;P1;durP2;ratioP2;P2;SDS_P1;SDS_P2;PMS_P1;PMS_P2;Temp;Humidity;BMP_temperature;BMP_pressure;BME280_temperature;BME280_humidity;BME280_pressure;Samples;Min_cycle;Max_cycle;Signal;HPM_P1;HPM_P2
2024/01/11 00:00:59;;;;;;;57.70;31.80;;;;;;;;;;4358133;32;318393;-79
2024/01/11 00:03:26;;;;;;;62.00;36.33;;;;;;;;;;4351713;32;318237;-78
2024/01/11 00:05:53;;;;;;;62.13;33.17;;;;;;;;;;4361884;32;317605;-78
2024/01/11 00:08:22;;;;;;;66.77;33.90;;;;;;;;;;4339015;32;318340;-78
2024/01/11 00:10:51;;;;;;;61.40;32.77;;;;;;;;;;4340417;32;318128;-79
2024/01/11 00:13:18;;;;;;;68.97;32.47;;;;;;;;;;4348741;32;317678;-78
2024/01/11 00:15:45;;;;;;;62.77;33.47;;;;;;;;;;4336498;32;418953;-79
2024/01/11 00:18:13;;;;;;;65.50;35.57;;;;;;;;;;4351198;32;318287;-79
2024/01/11 00:20:40;;;;;;;68.20;35.17;;;;;;;;;;4333201;32;318296;-79
2024/01/11 00:23:07;;;;;;;74.67;36.90;;;;;;;;;;4347783;32;318267;-79
2024/01/11 00:25:34;;;;;;;73.03;36.47;;;;;;;;;;4356391;32;318109;-79
2024/01/11 00:28:01;;;;;;;80.20;38.63;;;;;;;;;;4366419;32;318371;-79
2024/01/11 00:30:28;;;;;;;88.87;40.57;;;;;;;;;;4352617;32;318142;-79
2024/01/11 00:32:55;;;;;;;83.03;41.80;;;;;;;;;;4359560;32;317578;-79
2024/01/11 00:35:24;;;;;;;77.77;40.47;;;;;;;;;;4355638;32;318013;-79
2024/01/11 00:37:51;;;;;;;77.73;43.50;;;;;;;;;;4366146;32;318465;-79
2024/01/11 00:40:19;;;;;;;91.83;43.87;;;;;;;;;;4356188;32;318287;-79
2024/01/11 00:42:46;;;;;;;94.17;45.27;;;;;;;;;;4356701;32;317469;-79
2024/01/11 00:45:14;;;;;;;93.50;48.83;;;;;;;;;;4359361;32;318481;-80
2024/01/11 00:47:41;;;;;;;92.63;49.50;;;;;;;;;;4342057;32;317550;-79
2024/01/11 00:50:09;;;;;;;105.00;50.80;;;;;;;;;;4348383;32;318488;-79
2024/01/11 00:52:39;;;;;;;91.07;49.33;;;;;;;;;;4367565;32;319442;-79
2024/01/11 00:55:07;;;;;;;98.50;49.23;;;;;;;;;;4362358;32;317818;-79
2024/01/11 00:57:34;;;;;;;88.77;47.27;;;;;;;;;;4356982;32;318173;-80
2024/01/11 01:00:00;;;;;;;84.67;46.17;;;;;;;;;;4379441;32;318394;-79
2024/01/11 01:02:31;;;;;;;102.23;51.43;;;;;;;;;;4401351;32;318349;-79
2024/01/11 01:04:58;;;;;;;89.97;48.43;;;;;;;;;;4415787;32;318996;-79
2024/01/11 01:07:25;;;;;;;97.53;48.43;;;;;;;;;;4384501;32;318065;-80
2024/01/11 01:09:53;;;;;;;94.53;48.70;;;;;;;;;;4403295;32;317536;-79
2024/01/11 01:12:20;;;;;;;108.37;49.80;;;;;;;;;;4351072;32;316779;-79
2024/01/11 01:14:47;;;;;;;99.70;47.57;;;;;;;;;;4352422;32;356922;-79
2024/01/11 01:17:13;;;;;;;89.70;49.03;;;;;;;;;;4360379;32;318072;-79
2024/01/11 01:19:40;;;;;;;96.80;50.63;;;;;;;;;;4348212;32;318702;-79
2024/01/11 01:22:10;;;;;;;87.27;47.13;;;;;;;;;;4345734;32;317135;-79
2024/01/11 01:24:36;;;;;;;100.53;49.70;;;;;;;;;;4326295;33;316937;-79
2024/01/11 01:27:06;;;;;;;87.90;49.80;;;;;;;;;;4348794;33;317709;-79
2024/01/11 01:29:33;;;;;;;89.77;49.50;;;;;;;;;;4336913;33;316781;-79
2024/01/11 01:32:01;;;;;;;86.67;49.00;;;;;;;;;;4359804;32;317920;-78
2024/01/11 01:34:28;;;;;;;105.17;49.47;;;;;;;;;;4346628;32;337456;-77
2024/01/11 01:36:55;;;;;;;84.47;47.43;;;;;;;;;;4360301;32;319162;-77
2024/01/11 01:39:21;;;;;;;103.13;52.33;;;;;;;;;;4337617;32;318398;-78
2024/01/11 01:41:50;;;;;;;106.87;55.20;;;;;;;;;;4347740;32;319098;-78
2024/01/11 01:44:18;;;;;;;116.60;58.47;;;;;;;;;;4347085;32;319457;-78
2024/01/11 01:46:46;;;;;;;115.93;57.37;;;;;;;;;;4307693;32;418332;-79
2024/01/11 01:49:13;;;;;;;96.13;49.93;;;;;;;;;;4344208;32;319063;-78
2024/01/11 01:51:41;;;;;;;81.90;41.07;;;;;;;;;;4345576;32;318582;-78
2024/01/11 01:54:11;;;;;;;61.67;30.73;;;;;;;;;;4410109;32;318282;-78
2024/01/11 01:56:37;;;;;;;56.13;26.20;;;;;;;;;;4387842;32;318473;-78
2024/01/11 01:59:05;;;;;;;48.17;23.27;;;;;;;;;;4407888;32;319749;-78
2024/01/11 02:01:35;;;;;;;38.53;22.00;;;;;;;;;;4386918;32;336767;-78
2024/01/11 02:04:03;;;;;;;37.67;22.27;;;;;;;;;;4358728;32;319166;-80
2024/01/11 02:06:33;;;;;;;35.53;21.27;;;;;;;;;;4344853;32;354897;-78
2024/01/11 02:09:02;;;;;;;42.67;21.83;;;;;;;;;;4359672;32;318878;-78
2024/01/11 02:11:29;;;;;;;30.23;20.30;;;;;;;;;;4353404;32;319526;-78
2024/01/11 02:13:57;;;;;;;39.07;21.17;;;;;;;;;;4362666;32;319386;-78
2024/01/11 02:16:25;;;;;;;43.10;21.73;;;;;;;;;;4350135;32;340080;-79
2024/01/11 02:18:55;;;;;;;38.97;20.83;;;;;;;;;;4360202;32;319425;-79
2024/01/11 02:21:24;;;;;;;48.37;22.17;;;;;;;;;;4339350;32;319178;-78
2024/01/11 02:24:04;;;;;;;42.40;23.53;;;;;;;;;;4361494;32;319010;-78
2024/01/11 02:26:33;;;;;;;38.73;23.23;;;;;;;;;;4344926;32;319491;-78
2024/01/11 02:29:01;;;;;;;42.03;23.40;;;;;;;;;;4397606;32;318540;-78
2024/01/11 02:31:31;;;;;;;45.30;23.67;;;;;;;;;;4398086;32;348610;-78
2024/01/11 02:33:58;;;;;;;47.20;23.97;;;;;;;;;;4411666;32;319002;-78
2024/01/11 02:36:26;;;;;;;45.60;23.80;;;;;;;;;;4401596;32;319385;-79
2024/01/11 02:38:54;;;;;;;49.43;27.13;;;;;;;;;;4406346;32;319036;-78
2024/01/11 02:41:24;;;;;;;52.43;28.40;;;;;;;;;;4401348;32;341987;-79
2024/01/11 02:43:54;;;;;;;58.03;28.33;;;;;;;;;;4411623;32;319532;-78
2024/01/11 02:46:22;;;;;;;56.97;28.93;;;;;;;;;;4400665;32;319339;-79
2024/01/11 02:48:52;;;;;;;59.10;32.10;;;;;;;;;;4404382;32;319325;-78
2024/01/11 02:51:21;;;;;;;63.80;32.23;;;;;;;;;;4399500;32;379778;-78
2024/01/11 02:53:50;;;;;;;64.00;33.60;;;;;;;;;;4408536;32;319215;-78
2024/01/11 02:56:17;;;;;;;62.73;33.30;;;;;;;;;;4410038;32;319313;-78
2024/01/11 02:58:46;;;;;;;73.57;39.13;;;;;;;;;;4391733;32;417661;-79
2024/01/11 03:01:13;;;;;;;69.30;40.47;;;;;;;;;;4408407;32;319295;-79
2024/01/11 03:03:41;;;;;;;60.57;35.37;;;;;;;;;;4399544;32;319212;-79
2024/01/11 03:06:08;;;;;;;73.83;39.07;;;;;;;;;;4405268;32;318524;-79
2024/01/11 03:08:35;;;;;;;74.13;41.87;;;;;;;;;;4330502;32;319659;-78
2024/01/11 03:11:02;;;;;;;79.47;41.93;;;;;;;;;;4345393;32;319580;-78
2024/01/11 03:13:31;;;;;;;81.50;46.93;;;;;;;;;;4338990;32;318721;-78
2024/01/11 03:16:00;;;;;;;68.93;37.73;;;;;;;;;;4348281;32;319135;-78
2024/01/11 03:18:26;;;;;;;71.57;37.17;;;;;;;;;;4336552;32;319428;-79
2024/01/11 03:20:55;;;;;;;68.03;36.53;;;;;;;;;;4344895;32;319307;-79
2024/01/11 03:23:23;;;;;;;67.20;37.10;;;;;;;;;;4338947;32;319343;-79
2024/01/11 03:25:51;;;;;;;61.60;36.10;;;;;;;;;;4348661;32;318628;-79
2024/01/11 03:28:18;;;;;;;68.57;35.83;;;;;;;;;;4348798;32;319239;-79
2024/01/11 03:30:45;;;;;;;66.73;35.50;;;;;;;;;;4328122;32;417826;-79
2024/01/11 03:33:13;;;;;;;62.90;32.20;;;;;;;;;;4346771;32;322124;-79
2024/01/11 03:35:43;;;;;;;59.60;33.03;;;;;;;;;;4335107;32;319181;-79
2024/01/11 03:38:11;;;;;;;70.90;35.87;;;;;;;;;;4344428;32;318986;-80
2024/01/11 03:40:39;;;;;;;58.97;33.70;;;;;;;;;;4322567;32;319104;-78
2024/01/11 03:43:06;;;;;;;90.30;39.27;;;;;;;;;;4345855;32;319361;-79
2024/01/11 03:45:33;;;;;;;115.10;46.87;;;;;;;;;;4338456;32;320727;-80
2024/01/11 03:48:00;;;;;;;104.13;46.13;;;;;;;;;;4404216;32;319740;-78
2024/01/11 03:50:33;;;;;;;83.87;40.57;;;;;;;;;;4391401;32;320466;-78
2024/01/11 03:53:03;;;;;;;89.53;42.87;;;;;;;;;;4408438;32;319031;-78
2024/01/11 03:55:32;;;;;;;74.23;35.20;;;;;;;;;;4398814;32;319078;-79
2024/01/11 03:57:59;;;;;;;73.10;38.73;;;;;;;;;;4408799;32;319016;-78
2024/01/11 04:00:26;;;;;;;71.93;36.47;;;;;;;;;;4388124;32;318602;-78
2024/01/11 04:02:54;;;;;;;61.93;31.93;;;;;;;;;;4354724;32;319319;-78
2024/01/11 04:05:20;;;;;;;63.60;34.30;;;;;;;;;;4352039;32;319645;-78
2024/01/11 04:07:52;;;;;;;70.17;35.53;;;;;;;;;;4360388;32;318427;-78
2024/01/11 04:10:19;;;;;;;68.70;37.17;;;;;;;;;;4347884;32;376910;-78
2024/01/11 04:12:46;;;;;;;64.53;38.17;;;;;;;;;;4355160;32;318487;-78
2024/01/11 04:15:13;;;;;;;76.37;40.70;;;;;;;;;;4360961;32;319363;-78
2024/01/11 04:17:43;;;;;;;79.63;39.37;;;;;;;;;;4353207;32;318636;-80
2024/01/11 04:20:12;;;;;;;74.27;39.20;;;;;;;;;;4363981;32;318996;-79
2024/01/11 04:22:39;;;;;;;81.17;40.23;;;;;;;;;;4344615;32;319214;-78
2024/01/11 04:25:13;;;;;;;81.33;39.63;;;;;;;;;;4359960;32;357427;-78
2024/01/11 04:27:42;;;;;;;70.33;40.93;;;;;;;;;;4350565;32;319316;-78
2024/01/11 04:30:10;;;;;;;89.43;45.27;;;;;;;;;;4358985;32;318601;-77
2024/01/11 04:32:37;;;;;;;94.70;45.87;;;;;;;;;;4343902;32;319111;-77
2024/01/11 04:35:04;;;;;;;96.93;51.13;;;;;;;;;;4345611;32;319276;-77
2024/01/11 04:37:35;;;;;;;99.03;51.67;;;;;;;;;;4336463;32;321176;-77
2024/01/11 04:40:03;;;;;;;75.20;44.80;;;;;;;;;;4349078;32;318463;-78
2024/01/11 04:42:37;;;;;;;79.17;44.67;;;;;;;;;;4339407;32;357189;-78
2024/01/11 04:45:05;;;;;;;93.70;48.40;;;;;;;;;;4364935;32;319085;-77
2024/01/11 04:47:33;;;;;;;96.37;52.03;;;;;;;;;;4352228;32;317866;-77
2024/01/11 04:50:03;;;;;;;140.80;67.00;;;;;;;;;;4363249;32;318951;-77
2024/01/11 04:52:32;;;;;;;142.03;72.63;;;;;;;;;;4350464;32;318784;-79
2024/01/11 04:54:59;;;;;;;171.30;79.17;;;;;;;;;;4361612;32;320098;-78
2024/01/11 04:57:25;;;;;;;155.93;79.37;;;;;;;;;;4346346;32;320153;-77
2024/01/11 04:59:55;;;;;;;144.83;76.53;;;;;;;;;;4362456;32;320290;-78
2024/01/11 05:02:22;;;;;;;136.80;71.83;;;;;;;;;;4352968;32;320231;-78
2024/01/11 05:04:49;;;;;;;126.03;65.63;;;;;;;;;;4353696;32;319638;-78
2024/01/11 05:07:16;;;;;;;104.67;54.63;;;;;;;;;;4351652;32;319830;-79
2024/01/11 05:09:43;;;;;;;95.67;50.00;;;;;;;;;;4338185;32;320266;-78
2024/01/11 05:12:10;;;;;;;84.20;47.07;;;;;;;;;;4348426;32;318521;-79
2024/01/11 05:14:36;;;;;;;87.23;43.97;;;;;;;;;;4327216;32;319146;-79
2024/01/11 05:17:06;;;;;;;94.83;48.67;;;;;;;;;;4344890;32;319351;-79
2024/01/11 05:19:34;;;;;;;90.63;44.60;;;;;;;;;;4344351;32;319483;-78
2024/01/11 05:22:02;;;;;;;79.13;41.73;;;;;;;;;;4358922;32;319871;-79
2024/01/11 05:24:29;;;;;;;82.93;41.10;;;;;;;;;;4346449;32;320031;-79
2024/01/11 05:26:57;;;;;;;68.70;35.77;;;;;;;;;;4359243;32;319540;-79
2024/01/11 05:29:25;;;;;;;67.23;35.23;;;;;;;;;;4352567;32;318923;-80
2024/01/11 05:31:54;;;;;;;62.33;35.63;;;;;;;;;;4353683;32;318329;-80
2024/01/11 05:34:23;;;;;;;65.53;36.10;;;;;;;;;;4336066;32;319182;-79
2024/01/11 05:36:49;;;;;;;63.70;34.53;;;;;;;;;;4336874;32;318977;-78
2024/01/11 05:39:16;;;;;;;71.53;37.13;;;;;;;;;;4347114;32;319125;-80
2024/01/11 05:41:44;;;;;;;76.27;40.00;;;;;;;;;;4336750;32;354351;-79
2024/01/11 05:44:14;;;;;;;73.70;42.37;;;;;;;;;;4347176;32;318519;-79
2024/01/11 05:46:42;;;;;;;81.57;42.23;;;;;;;;;;4329723;32;319401;-79
2024/01/11 05:49:08;;;;;;;90.70;44.90;;;;;;;;;;4347624;32;319219;-79
2024/01/11 05:51:37;;;;;;;85.80;44.60;;;;;;;;;;4335317;32;318426;-78
2024/01/11 05:54:05;;;;;;;76.17;44.63;;;;;;;;;;4354494;32;318551;-79
2024/01/11 05:56:34;;;;;;;82.37;41.90;;;;;;;;;;4346316;32;319225;-78
2024/01/11 05:59:01;;;;;;;88.43;48.83;;;;;;;;;;4362512;32;318410;-79
2024/01/11 06:01:28;;;;;;;83.73;41.77;;;;;;;;;;4347504;32;319358;-78
2024/01/11 06:03:56;;;;;;;79.50;40.27;;;;;;;;;;4347482;32;319093;-80
2024/01/11 06:06:25;;;;;;;97.07;42.33;;;;;;;;;;4340639;32;319107;-80
2024/01/11 06:08:56;;;;;;;121.57;58.77;;;;;;;;;;4358298;32;319218;-79
2024/01/11 06:11:24;;;;;;;173.53;90.60;;;;;;;;;;4352757;32;320099;-80
2024/01/11 06:13:51;;;;;;;192.47;103.90;;;;;;;;;;4363731;32;320182;-80
2024/01/11 06:16:17;;;;;;;186.27;98.27;;;;;;;;;;4371143;32;320924;-79
2024/01/11 06:18:45;;;;;;;172.67;90.60;;;;;;;;;;4349293;32;399134;-79
2024/01/11 06:21:15;;;;;;;166.73;85.27;;;;;;;;;;4359464;32;319417;-79
2024/01/11 06:23:44;;;;;;;162.23;86.13;;;;;;;;;;4354321;32;320824;-81
2024/01/11 06:26:18;;;;;;;166.40;87.30;;;;;;;;;;4362790;32;320155;-80
2024/01/11 06:28:46;;;;;;;160.27;79.43;;;;;;;;;;4345533;32;419750;-80
2024/01/11 06:31:13;;;;;;;173.03;79.80;;;;;;;;;;4364536;32;319794;-79
2024/01/11 06:33:41;;;;;;;186.23;89.87;;;;;;;;;;4353239;32;320325;-79
2024/01/11 06:36:08;;;;;;;206.00;92.90;;;;;;;;;;4360661;32;320175;-79
2024/01/11 06:38:35;;;;;;;208.07;93.90;;;;;;;;;;4345962;32;319414;-79
2024/01/11 06:41:04;;;;;;;189.10;88.93;;;;;;;;;;4361610;32;319564;-79
2024/01/11 06:43:37;;;;;;;203.67;98.77;;;;;;;;;;4351696;32;319644;-79
2024/01/11 06:46:06;;;;;;;194.37;95.30;;;;;;;;;;4363813;32;320201;-80
2024/01/11 06:48:33;;;;;;;173.80;85.07;;;;;;;;;;4347125;32;320447;-79
2024/01/11 06:51:00;;;;;;;163.40;77.20;;;;;;;;;;4356608;32;319369;-79
2024/01/11 06:53:28;;;;;;;144.67;79.67;;;;;;;;;;4350066;32;320379;-79
2024/01/11 06:55:56;;;;;;;181.13;91.43;;;;;;;;;;4360834;32;319654;-78
2024/01/11 06:58:26;;;;;;;191.87;101.87;;;;;;;;;;4337818;32;355938;-79
2024/01/11 07:00:56;;;;;;;177.30;97.53;;;;;;;;;;4344241;32;322140;-80
2024/01/11 07:03:23;;;;;;;179.23;84.63;;;;;;;;;;4348213;32;320557;-79
2024/01/11 07:05:50;;;;;;;123.43;68.70;;;;;;;;;;4357222;32;319955;-78
2024/01/11 07:08:18;;;;;;;136.83;71.57;;;;;;;;;;4365254;32;319866;-79
2024/01/11 07:10:49;;;;;;;116.63;66.03;;;;;;;;;;4420039;32;420176;-78
2024/01/11 07:13:17;;;;;;;133.83;68.63;;;;;;;;;;4438638;32;331528;-78
2024/01/11 07:15:45;;;;;;;115.57;65.00;;;;;;;;;;4424783;32;419998;-80
2024/01/11 07:18:14;;;;;;;97.67;56.47;;;;;;;;;;4438960;32;318866;-77
2024/01/11 07:20:43;;;;;;;78.07;47.87;;;;;;;;;;4378778;32;319022;-78
2024/01/11 07:23:14;;;;;;;98.13;53.20;;;;;;;;;;4354135;32;318870;-77
2024/01/11 07:25:42;;;;;;;93.47;53.70;;;;;;;;;;4335003;32;318664;-78
2024/01/11 07:28:09;;;;;;;96.87;53.00;;;;;;;;;;4346704;32;319309;-78
2024/01/11 07:30:35;;;;;;;99.27;51.13;;;;;;;;;;4327643;32;319394;-78
2024/01/11 07:33:04;;;;;;;98.63;55.10;;;;;;;;;;4331089;32;320302;-79
2024/01/11 07:35:37;;;;;;;120.27;56.90;;;;;;;;;;4337500;32;319172;-78
2024/01/11 07:38:06;;;;;;;89.93;49.47;;;;;;;;;;4345066;32;319524;-79
2024/01/11 07:40:33;;;;;;;92.47;45.97;;;;;;;;;;4329914;32;319480;-78
2024/01/11 07:43:01;;;;;;;77.07;44.13;;;;;;;;;;4339673;32;319084;-78
2024/01/11 07:45:28;;;;;;;75.97;47.27;;;;;;;;;;4354023;32;318676;-78
2024/01/11 07:47:55;;;;;;;71.40;36.10;;;;;;;;;;4364874;32;319352;-78
2024/01/11 07:50:30;;;;;;;65.23;36.80;;;;;;;;;;4350665;32;319405;-78
2024/01/11 07:52:59;;;;;;;66.77;36.53;;;;;;;;;;4358823;32;319431;-78
2024/01/11 07:55:27;;;;;;;59.97;36.80;;;;;;;;;;4338825;32;319367;-78
2024/01/11 07:57:56;;;;;;;83.17;46.30;;;;;;;;;;4360013;32;319344;-79
2024/01/11 08:00:23;;;;;;;89.60;51.87;;;;;;;;;;4351134;32;318330;-78
2024/01/11 08:02:50;;;;;;;84.90;46.27;;;;;;;;;;4354368;32;317660;-78
2024/01/11 08:05:21;;;;;;;71.20;43.23;;;;;;;;;;4360333;32;317787;-79
2024/01/11 08:07:49;;;;;;;70.87;43.80;;;;;;;;;;4347482;32;420695;-78
2024/01/11 08:10:19;;;;;;;74.23;39.77;;;;;;;;;;4363210;32;316903;-79
2024/01/11 08:12:46;;;;;;;75.83;43.93;;;;;;;;;;4334446;32;417284;-78
2024/01/11 08:15:16;;;;;;;132.20;69.53;;;;;;;;;;4355629;32;318137;-78
2024/01/11 08:17:45;;;;;;;73.10;40.50;;;;;;;;;;4354082;32;319190;-79
2024/01/11 08:20:12;;;;;;;55.10;36.70;;;;;;;;;;4364801;32;317932;-78
2024/01/11 08:22:40;;;;;;;149.50;59.78;;;;;;;;;;4345235;32;337986;-78
2024/01/11 08:25:22;;;;;;;70.70;38.33;;;;;;;;;;4363038;32;319354;-78
2024/01/11 08:27:51;;;;;;;66.63;35.77;;;;;;;;;;4349032;32;414551;-79
2024/01/11 08:30:17;;;;;;;62.40;37.70;;;;;;;;;;4362172;32;318155;-78
2024/01/11 08:32:44;;;;;;;59.67;35.47;;;;;;;;;;4342406;32;417519;-79
2024/01/11 08:35:12;;;;;;;57.90;32.87;;;;;;;;;;4361653;32;317845;-78
2024/01/11 08:37:40;;;;;;;63.93;29.87;;;;;;;;;;4352062;32;318856;-78
2024/01/11 08:40:10;;;;;;;49.10;28.53;;;;;;;;;;4358360;32;318497;-79
2024/01/11 08:42:39;;;;;;;48.27;28.83;;;;;;;;;;4328656;32;332829;-79
2024/01/11 08:45:09;;;;;;;43.23;28.73;;;;;;;;;;4348565;32;317518;-80
2024/01/11 08:47:38;;;;;;;47.73;25.57;;;;;;;;;;4343728;32;317871;-79
2024/01/11 08:50:07;;;;;;;45.03;25.73;;;;;;;;;;4357960;32;318141;-78
2024/01/11 08:52:35;;;;;;;42.47;23.20;;;;;;;;;;4346197;32;318117;-78
2024/01/11 08:55:04;;;;;;;39.30;24.07;;;;;;;;;;4360462;32;317800;-78
2024/01/11 08:57:31;;;;;;;43.90;26.07;;;;;;;;;;4353109;32;318499;-78
2024/01/11 08:59:59;;;;;;;40.83;25.33;;;;;;;;;;4359624;32;318313;-78
2024/01/11 09:02:28;;;;;;;37.67;21.50;;;;;;;;;;4351214;32;318219;-79
2024/01/11 09:04:55;;;;;;;39.37;20.13;;;;;;;;;;4356768;32;317826;-78
2024/01/11 09:07:22;;;;;;;36.40;21.30;;;;;;;;;;4338988;32;318164;-79
2024/01/11 09:09:50;;;;;;;34.53;19.63;;;;;;;;;;4346098;32;317785;-78
2024/01/11 09:12:17;;;;;;;42.63;21.17;;;;;;;;;;4346668;32;318134;-77
2024/01/11 09:14:45;;;;;;;34.90;19.97;;;;;;;;;;4333466;32;419584;-77
2024/01/11 09:17:11;;;;;;;30.80;17.33;;;;;;;;;;4360124;32;317517;-78
2024/01/11 09:19:41;;;;;;;28.70;16.53;;;;;;;;;;4348105;32;332230;-78
2024/01/11 09:22:09;;;;;;;29.77;15.10;;;;;;;;;;4359640;32;316857;-77
2024/01/11 09:24:38;;;;;;;26.57;14.57;;;;;;;;;;4342627;32;318452;-77
2024/01/11 09:27:07;;;;;;;29.87;16.90;;;;;;;;;;4359999;32;317900;-78
2024/01/11 09:29:37;;;;;;;23.93;14.00;;;;;;;;;;4349926;32;317905;-78
2024/01/11 09:32:05;;;;;;;25.97;15.37;;;;;;;;;;4362943;32;318369;-77
2024/01/11 09:34:34;;;;;;;32.00;18.90;;;;;;;;;;4340453;32;342151;-77
2024/01/11 09:37:03;;;;;;;32.90;15.70;;;;;;;;;;4361238;32;317768;-77
2024/01/11 09:39:31;;;;;;;27.60;13.53;;;;;;;;;;4352094;32;318551;-77
2024/01/11 09:42:05;;;;;;;36.27;16.17;;;;;;;;;;4359241;32;318122;-77
2024/01/11 09:44:31;;;;;;;39.23;13.77;;;;;;;;;;4338708;32;319016;-78
2024/01/11 09:47:04;;;;;;;36.50;18.70;;;;;;;;;;4350567;32;318289;-79
2024/01/11 09:49:37;;;;;;;30.27;13.90;;;;;;;;;;4347401;32;318344;-77
2024/01/11 09:52:09;;;;;;;30.07;16.03;;;;;;;;;;4368234;32;318319;-78
2024/01/11 09:54:36;;;;;;;27.77;15.33;;;;;;;;;;4350037;32;318366;-79
2024/01/11 09:57:05;;;;;;;38.60;18.50;;;;;;;;;;4363659;32;317672;-80
2024/01/11 09:59:35;;;;;;;48.03;21.50;;;;;;;;;;4363619;32;317781;-79
2024/01/11 10:02:05;;;;;;;36.80;13.83;;;;;;;;;;4375904;32;316437;-78
2024/01/11 10:04:35;;;;;;;28.80;15.57;;;;;;;;;;4359319;32;316208;-78
2024/01/11 10:07:06;;;;;;;33.83;15.20;;;;;;;;;;4359054;32;318098;-79
2024/01/11 10:09:36;;;;;;;24.17;13.90;;;;;;;;;;4343346;32;321779;-79
2024/01/11 10:12:05;;;;;;;34.77;17.93;;;;;;;;;;4362088;32;317663;-79
2024/01/11 10:14:34;;;;;;;30.20;15.73;;;;;;;;;;4316553;32;318338;-79
2024/01/11 10:17:01;;;;;;;33.43;16.87;;;;;;;;;;4348685;32;357916;-78
2024/01/11 10:19:29;;;;;;;40.30;17.93;;;;;;;;;;4352216;32;318646;-78
2024/01/11 10:21:58;;;;;;;32.20;18.13;;;;;;;;;;4361604;32;318206;-77
2024/01/11 10:24:29;;;;;;;42.17;16.90;;;;;;;;;;4351762;32;317821;-78
2024/01/11 10:27:03;;;;;;;23.10;14.23;;;;;;;;;;4362450;32;318194;-78
2024/01/11 10:29:36;;;;;;;21.57;13.77;;;;;;;;;;4349424;32;318110;-78
2024/01/11 10:32:05;;;;;;;27.03;14.03;;;;;;;;;;4360489;32;318137;-78
2024/01/11 10:34:32;;;;;;;26.30;14.77;;;;;;;;;;4343807;32;318157;-78
2024/01/11 10:37:00;;;;;;;31.93;16.50;;;;;;;;;;4359530;32;318031;-77
2024/01/11 10:39:30;;;;;;;37.83;20.33;;;;;;;;;;4327729;32;317386;-78
2024/01/11 10:42:05;;;;;;;33.27;18.73;;;;;;;;;;4353051;32;319006;-79
2024/01/11 10:44:35;;;;;;;34.50;15.80;;;;;;;;;;4338814;32;318203;-79
2024/01/11 10:47:06;;;;;;;24.60;13.20;;;;;;;;;;4357600;32;318318;-78
2024/01/11 10:49:37;;;;;;;24.83;14.43;;;;;;;;;;4342329;32;317857;-76
2024/01/11 10:52:06;;;;;;;27.60;15.63;;;;;;;;;;4350155;32;317946;-78
2024/01/11 10:54:35;;;;;;;24.60;14.60;;;;;;;;;;4329201;32;318031;-77
2024/01/11 10:57:05;;;;;;;24.80;16.30;;;;;;;;;;4347976;32;317219;-77
2024/01/11 10:59:33;;;;;;;34.90;18.57;;;;;;;;;;4339750;32;338887;-77
2024/01/11 11:02:10;;;;;;;31.53;19.83;;;;;;;;;;4339757;32;318166;-77
2024/01/11 11:04:38;;;;;;;33.73;22.57;;;;;;;;;;4327469;32;317995;-77
2024/01/11 11:07:08;;;;;;;39.77;21.60;;;;;;;;;;4346308;32;317939;-77
2024/01/11 11:09:43;;;;;;;36.57;21.23;;;;;;;;;;4318975;32;318177;-77
2024/01/11 11:12:15;;;;;;;41.97;24.37;;;;;;;;;;4351401;32;317443;-77
2024/01/11 11:14:44;;;;;;;40.57;23.40;;;;;;;;;;4350838;32;317759;-77
2024/01/11 11:17:12;;;;;;;39.43;23.03;;;;;;;;;;4369783;32;317897;-77
2024/01/11 11:19:41;;;;;;;47.30;26.50;;;;;;;;;;4352482;32;317886;-77
2024/01/11 11:22:11;;;;;;;39.47;24.03;;;;;;;;;;4361504;32;317656;-78
2024/01/11 11:24:38;;;;;;;46.73;28.00;;;;;;;;;;4345159;32;317502;-78
2024/01/11 11:27:07;;;;;;;64.23;36.87;;;;;;;;;;4362137;32;317737;-79
2024/01/11 11:29:39;;;;;;;46.07;27.80;;;;;;;;;;4335471;32;317599;-80
2024/01/11 11:32:11;;;;;;;45.53;27.33;;;;;;;;;;4358131;32;317897;-80
2024/01/11 11:34:42;;;;;;;43.53;26.93;;;;;;;;;;4347073;32;318222;-80
2024/01/11 11:37:10;;;;;;;124.37;65.70;;;;;;;;;;4362478;32;317391;-80
2024/01/11 11:39:38;;;;;;;158.93;70.17;;;;;;;;;;4350180;32;318824;-79
2024/01/11 11:42:08;;;;;;;90.43;50.77;;;;;;;;;;4351998;32;318835;-81
2024/01/11 11:44:49;;;;;;;72.07;39.90;;;;;;;;;;4330681;32;317668;-79
2024/01/11 11:47:26;;;;;;;59.00;33.80;;;;;;;;;;4349717;32;317006;-79
2024/01/11 11:50:06;;;;;;;68.60;36.13;;;;;;;;;;4332650;32;418964;-79
2024/01/11 11:52:37;;;;;;;65.77;37.37;;;;;;;;;;4342097;32;348330;-78
2024/01/11 11:55:08;;;;;;;66.87;37.73;;;;;;;;;;4362213;32;317332;-79
2024/01/11 11:57:38;;;;;;;65.27;37.50;;;;;;;;;;4343130;32;356818;-80
2024/01/11 12:00:11;;;;;;;76.27;40.57;;;;;;;;;;4343095;32;318423;-80
2024/01/11 12:02:40;;;;;;;72.33;43.53;;;;;;;;;;4346053;32;317443;-80
2024/01/11 12:05:11;;;;;;;89.07;53.27;;;;;;;;;;4363234;32;316886;-80
2024/01/11 12:07:38;;;;;;;103.13;58.80;;;;;;;;;;4351439;32;318423;-79
2024/01/11 12:10:07;;;;;;;468.40;213.13;;;;;;;;;;4363246;32;318696;-80
2024/01/11 12:12:38;;;;;;;112.60;60.40;;;;;;;;;;4344544;32;319541;-79
2024/01/11 12:15:11;;;;;;;107.80;60.17;;;;;;;;;;4363503;32;317388;-80
2024/01/11 12:17:42;;;;;;;209.80;105.93;;;;;;;;;;4350790;32;318424;-79
2024/01/11 12:20:10;;;;;;;95.97;49.60;;;;;;;;;;4353015;32;319596;-80
2024/01/11 12:22:37;;;;;;;81.03;43.27;;;;;;;;;;4324466;32;316686;-80
2024/01/11 12:25:08;;;;;;;78.23;43.20;;;;;;;;;;4352041;32;317249;-80
2024/01/11 12:27:38;;;;;;;68.83;41.03;;;;;;;;;;4344386;32;317776;-80
2024/01/11 12:30:16;;;;;;;61.57;34.10;;;;;;;;;;4351778;32;316454;-79
2024/01/11 12:32:44;;;;;;;284.80;78.17;;;;;;;;;;4333879;32;419620;-79
2024/01/11 12:35:12;;;;;;;200.43;67.07;;;;;;;;;;4348438;32;319094;-79
2024/01/11 12:37:39;;;;;;;89.47;37.33;;;;;;;;;;4337611;32;319441;-80
2024/01/11 12:40:10;;;;;;;66.10;33.70;;;;;;;;;;4347901;32;318224;-80
2024/01/11 12:42:44;;;;;;;59.20;31.77;;;;;;;;;;4329452;32;317658;-78
2024/01/11 12:45:12;;;;;;;57.33;30.43;;;;;;;;;;4338621;32;318041;-81
2024/01/11 12:47:40;;;;;;;65.77;35.73;;;;;;;;;;4340827;32;317643;-80
2024/01/11 12:50:08;;;;;;;46.77;22.57;;;;;;;;;;4362151;32;317251;-80
2024/01/11 12:52:36;;;;;;;186.27;87.17;;;;;;;;;;4347627;32;317805;-79
2024/01/11 12:55:04;;;;;;;142.77;73.27;;;;;;;;;;4361126;32;317534;-79
2024/01/11 12:57:35;;;;;;;35.77;21.27;;;;;;;;;;4352154;32;319057;-79
2024/01/11 13:00:13;;;;;;;38.80;19.07;;;;;;;;;;4358210;32;317894;-78
2024/01/11 13:02:42;;;;;;;33.77;20.70;;;;;;;;;;4341528;32;317632;-78
2024/01/11 13:05:12;;;;;;;27.60;16.27;;;;;;;;;;4363030;32;317886;-79
2024/01/11 13:07:40;;;;;;;34.70;18.37;;;;;;;;;;4343617;32;323257;-79
2024/01/11 13:10:09;;;;;;;36.40;17.87;;;;;;;;;;4376021;32;318426;-80
2024/01/11 13:12:35;;;;;;;40.97;20.47;;;;;;;;;;4346554;32;317770;-79
2024/01/11 13:15:02;;;;;;;36.40;21.10;;;;;;;;;;4363522;32;318281;-80
2024/01/11 13:17:30;;;;;;;27.93;16.43;;;;;;;;;;4352135;32;318394;-79
2024/01/11 13:19:59;;;;;;;33.13;19.17;;;;;;;;;;4364543;32;318286;-79
2024/01/11 13:22:27;;;;;;;34.30;18.90;;;;;;;;;;4346844;32;318611;-81
2024/01/11 13:24:55;;;;;;;135.57;64.97;;;;;;;;;;4350886;32;337171;-80
2024/01/11 13:27:22;;;;;;;37.80;20.43;;;;;;;;;;4337440;32;319163;-80
2024/01/11 13:29:50;;;;;;;28.53;19.27;;;;;;;;;;4364386;32;317748;-79
2024/01/11 13:32:17;;;;;;;28.13;17.67;;;;;;;;;;4361506;32;317661;-80
2024/01/11 13:34:47;;;;;;;35.77;16.53;;;;;;;;;;4346279;32;317625;-80
2024/01/11 13:37:14;;;;;;;38.77;19.20;;;;;;;;;;4364249;32;318691;-80
2024/01/11 13:39:41;;;;;;;25.83;16.23;;;;;;;;;;4340894;32;318015;-80
2024/01/11 13:42:10;;;;;;;30.47;16.13;;;;;;;;;;4361328;32;317346;-79
2024/01/11 13:44:37;;;;;;;29.00;15.07;;;;;;;;;;4349240;32;317093;-79
2024/01/11 13:47:04;;;;;;;19.27;12.70;;;;;;;;;;4360816;32;317641;-79
2024/01/11 13:49:34;;;;;;;40.30;15.53;;;;;;;;;;4339651;32;318091;-79
2024/01/11 13:52:06;;;;;;;23.63;12.90;;;;;;;;;;4362495;32;347863;-79
2024/01/11 13:54:32;;;;;;;21.77;13.03;;;;;;;;;;4349963;32;317635;-78
2024/01/11 13:57:02;;;;;;;23.80;13.03;;;;;;;;;;4366217;32;316435;-79
2024/01/11 13:59:30;;;;;;;17.73;11.10;;;;;;;;;;4356364;32;316556;-79
2024/01/11 14:01:57;;;;;;;13.13;9.87;;;;;;;;;;4362875;32;318496;-79
2024/01/11 14:04:24;;;;;;;25.40;11.83;;;;;;;;;;4357177;32;316982;-78
2024/01/11 14:06:52;;;;;;;29.77;14.70;;;;;;;;;;4356374;32;317953;-79
2024/01/11 14:09:23;;;;;;;52.20;15.80;;;;;;;;;;4350189;32;318270;-79